Time;durP1;ratioP1;P1;durP2;ratioP2;P2;SDS_P1;SDS_P2;PMS_P1;PMS_P2;Temp;Humidity;BMP_temperature;BMP_pressure;BME280_temperature;BME280_humidity;BME280_pressure;Samples;Min_cycle;Max_cycle;Signal;HPM_P1;HPM_P2
2023/09/27 00:02:07;;;;;;;20.48;13.88;;;15.80;99.90;;;;;;5074429;28;20056;-79
2023/09/27 00:04:34;;;;;;;20.58;14.43;;;15.70;99.90;;;;;;5070920;28;20048;-80
2023/09/27 00:06:59;;;;;;;19.60;14.00;;;15.70;99.90;;;;;;5074094;28;20106;-80
2023/09/27 00:09:25;;;;;;;16.35;13.38;;;15.70;99.90;;;;;;5076304;28;20036;-80
2023/09/27 00:11:51;;;;;;;18.55;13.93;;;15.70;99.90;;;;;;5075372;28;20048;-79
2023/09/27 00:14:17;;;;;;;18.00;13.55;;;15.60;99.90;;;;;;5079200;28;20494;-79
2023/09/27 00:16:43;;;;;;;19.80;14.88;;;15.60;99.90;;;;;;5074888;28;20046;-79
2023/09/27 00:19:09;;;;;;;19.67;13.95;;;15.70;99.90;;;;;;5076111;28;20047;-81
2023/09/27 00:21:35;;;;;;;20.02;13.90;;;15.60;99.90;;;;;;5077257;28;20102;-80
2023/09/27 00:24:00;;;;;;;19.92;13.95;;;15.60;99.90;;;;;;5079845;28;20048;-79
2023/09/27 00:26:26;;;;;;;19.40;13.80;;;15.60;99.90;;;;;;5064718;28;20041;-80
2023/09/27 00:28:52;;;;;;;18.75;14.40;;;15.60;99.90;;;;;;5063784;28;20033;-80
2023/09/27 00:31:18;;;;;;;18.15;13.25;;;15.60;99.90;;;;;;5071234;28;20079;-80
2023/09/27 00:33:44;;;;;;;20.17;14.32;;;15.60;99.90;;;;;;5064714;28;20059;-80
2023/09/27 00:36:09;;;;;;;20.95;14.15;;;15.60;99.90;;;;;;5067060;28;20406;-79
2023/09/27 00:38:36;;;;;;;19.63;14.32;;;15.60;99.90;;;;;;5066221;28;20040;-80
2023/09/27 00:41:04;;;;;;;19.88;13.95;;;15.50;99.90;;;;;;5088162;28;20048;-78
2023/09/27 00:43:35;;;;;;;17.85;14.75;;;15.50;99.90;;;;;;5073190;28;20414;-78
2023/09/27 00:46:03;;;;;;;18.30;13.85;;;15.50;99.90;;;;;;5076133;28;20441;-80
2023/09/27 00:48:35;;;;;;;19.73;14.15;;;15.50;99.90;;;;;;5074908;28;20110;-80
2023/09/27 00:51:04;;;;;;;18.58;13.57;;;15.50;99.90;;;;;;5068152;28;20091;-80
2023/09/27 00:53:34;;;;;;;18.45;14.48;;;15.40;99.90;;;;;;5061065;28;20394;-79
2023/09/27 00:56:04;;;;;;;20.15;14.77;;;15.40;99.90;;;;;;5068683;28;20094;-79
2023/09/27 00:58:34;;;;;;;20.90;14.40;;;15.40;99.90;;;;;;5079580;28;20048;-80
2023/09/27 01:01:00;;;;;;;21.38;14.68;;;15.40;99.90;;;;;;5071381;28;20487;-79
2023/09/27 01:03:26;;;;;;;19.08;14.15;;;15.40;99.90;;;;;;5069757;28;20032;-79
2023/09/27 01:05:54;;;;;;;19.85;13.95;;;15.40;99.90;;;;;;5074460;28;20498;-78
2023/09/27 01:08:21;;;;;;;24.10;14.93;;;15.40;99.90;;;;;;5069534;28;20511;-79
2023/09/27 01:10:47;;;;;;;17.85;14.23;;;15.50;99.90;;;;;;5059597;28;20151;-79
2023/09/27 01:13:13;;;;;;;22.38;14.82;;;15.40;99.90;;;;;;5056109;28;20510;-79
2023/09/27 01:15:39;;;;;;;16.63;13.57;;;15.40;99.90;;;;;;5072037;28;20036;-80
2023/09/27 01:18:05;;;;;;;20.50;14.90;;;15.40;99.90;;;;;;5065426;28;20090;-79
2023/09/27 01:20:33;;;;;;;19.08;14.25;;;15.40;99.90;;;;;;5068906;28;20041;-80
2023/09/27 01:23:05;;;;;;;19.48;14.50;;;15.40;99.90;;;;;;5059315;28;20033;-79
2023/09/27 01:25:38;;;;;;;16.52;13.80;;;15.30;99.90;;;;;;5062705;28;20398;-80
2023/09/27 01:28:09;;;;;;;20.30;15.07;;;15.30;99.90;;;;;;5075062;28;20359;-79
2023/09/27 01:30:36;;;;;;;22.17;15.07;;;15.30;99.90;;;;;;5069368;28;20041;-80
2023/09/27 01:33:09;;;;;;;17.73;15.10;;;15.30;99.90;;;;;;5061625;28;20049;-80
2023/09/27 01:35:36;;;;;;;18.67;15.27;;;15.30;99.90;;;;;;5063548;28;20311;-79
2023/09/27 01:38:04;;;;;;;22.33;15.18;;;15.30;99.90;;;;;;5071279;28;20510;-81
2023/09/27 01:40:30;;;;;;;18.48;14.70;;;15.30;99.90;;;;;;5058296;28;20127;-79
2023/09/27 01:43:05;;;;;;;17.13;14.07;;;15.40;99.90;;;;;;5071942;28;20052;-80
2023/09/27 01:45:31;;;;;;;17.05;14.13;;;15.40;99.90;;;;;;5073300;28;20039;-79
2023/09/27 01:48:01;;;;;;;19.75;14.93;;;15.30;99.90;;;;;;5051762;28;20044;-79
2023/09/27 01:50:33;;;;;;;23.98;15.52;;;15.40;99.90;;;;;;5073658;28;20041;-80
2023/09/27 01:53:01;;;;;;;21.85;15.23;;;15.30;99.90;;;;;;5064501;28;20051;-80
2023/09/27 01:55:27;;;;;;;22.33;14.90;;;15.40;99.90;;;;;;5083915;28;20100;-79
2023/09/27 01:57:55;;;;;;;20.85;15.52;;;15.30;99.90;;;;;;5066873;28;20551;-81
2023/09/27 02:00:21;;;;;;;22.97;15.03;;;15.30;99.90;;;;;;5094396;28;20395;-80
2023/09/27 02:02:51;;;;;;;18.23;15.48;;;15.30;99.90;;;;;;5070489;28;20029;-79
2023/09/27 02:05:20;;;;;;;19.50;15.30;;;15.30;99.90;;;;;;5055961;28;20049;-79
2023/09/27 02:07:52;;;;;;;21.17;14.52;;;15.20;99.90;;;;;;5056319;28;20059;-79
2023/09/27 02:10:18;;;;;;;21.38;14.93;;;15.20;99.90;;;;;;5048637;28;20045;-79
2023/09/27 02:12:44;;;;;;;22.60;16.15;;;15.20;99.90;;;;;;5065013;28;20041;-80
2023/09/27 02:15:12;;;;;;;19.88;15.45;;;15.10;99.90;;;;;;5065224;28;20051;-79
2023/09/27 02:17:39;;;;;;;20.45;15.38;;;15.10;99.90;;;;;;5062701;28;20048;-80
2023/09/27 02:20:12;;;;;;;19.63;15.13;;;15.10;99.90;;;;;;5078566;28;20048;-79
2023/09/27 02:22:42;;;;;;;18.52;15.27;;;15.00;99.90;;;;;;5068398;28;20066;-80
2023/09/27 02:25:09;;;;;;;21.90;16.55;;;15.00;99.90;;;;;;5086368;28;20048;-79
2023/09/27 02:27:39;;;;;;;23.35;16.08;;;14.90;99.90;;;;;;5081330;28;20040;-80
2023/09/27 02:30:13;;;;;;;21.70;16.10;;;14.90;99.90;;;;;;5086316;28;20488;-80
2023/09/27 02:32:41;;;;;;;21.42;14.85;;;14.90;99.90;;;;;;5066010;28;20048;-78
2023/09/27 02:35:09;;;;;;;;;;;14.80;99.90;;;;;;5078384;28;20052;-80
2023/09/27 02:37:39;;;;;;;18.65;14.68;;;14.80;99.90;;;;;;5070641;28;20379;-80
2023/09/27 02:40:11;;;;;;;20.83;17.63;;;14.80;99.90;;;;;;5071112;28;20060;-80
2023/09/27 02:42:41;;;;;;;18.17;15.77;;;14.80;99.90;;;;;;5059894;28;20375;-81
2023/09/27 02:45:13;;;;;;;18.25;15.70;;;14.80;99.90;;;;;;5060979;28;20399;-79
2023/09/27 02:47:43;;;;;;;24.67;16.70;;;14.70;99.90;;;;;;5056060;28;20063;-80
2023/09/27 02:50:13;;;;;;;20.35;16.42;;;14.80;99.90;;;;;;5055210;28;20071;-80
2023/09/27 02:52:40;;;;;;;18.17;16.17;;;14.80;99.90;;;;;;5071490;28;20072;-80
2023/09/27 02:55:08;;;;;;;19.92;16.50;;;14.70;99.90;;;;;;5052857;28;20056;-80
2023/09/27 02:57:34;;;;;;;27.05;18.27;;;14.70;99.90;;;;;;5052290;28;20041;-81
2023/09/27 03:00:06;;;;;;;22.80;17.38;;;14.70;99.90;;;;;;5071508;28;20501;-80
2023/09/27 03:02:33;;;;;;;22.83;15.52;;;14.70;99.90;;;;;;5059905;28;20124;-81
2023/09/27 03:04:59;;;;;;;21.17;16.13;;;14.60;99.90;;;;;;5055869;28;20045;-79
2023/09/27 03:07:24;;;;;;;19.50;16.25;;;14.70;99.90;;;;;;5039453;28;20046;-79
2023/09/27 03:09:50;;;;;;;21.13;17.27;;;14.60;99.90;;;;;;5052877;28;20044;-80
2023/09/27 03:12:16;;;;;;;23.63;17.27;;;14.60;99.90;;;;;;5060695;28;20068;-80
2023/09/27 03:14:41;;;;;;;20.30;16.73;;;14.80;99.90;;;;;;5064412;28;20445;-80
2023/09/27 03:17:09;;;;;;;22.67;17.63;;;14.60;99.90;;;;;;5070269;28;20497;-80
2023/09/27 03:19:34;;;;;;;20.63;17.30;;;14.60;99.90;;;;;;5073848;28;20456;-80
2023/09/27 03:22:01;;;;;;;26.25;18.13;;;14.60;99.90;;;;;;5071036;28;20116;-79
2023/09/27 03:24:27;;;;;;;20.38;16.98;;;14.60;99.90;;;;;;5057491;28;20493;-80
2023/09/27 03:26:53;;;;;;;25.80;18.65;;;14.70;99.90;;;;;;5072870;28;20048;-80
2023/09/27 03:29:21;;;;;;;21.58;17.92;;;14.60;99.90;;;;;;5077680;28;20036;-80
2023/09/27 03:31:48;;;;;;;21.83;17.02;;;14.60;99.90;;;;;;5075051;28;20056;-80
2023/09/27 03:34:13;;;;;;;22.58;16.48;;;14.60;99.90;;;;;;5071315;28;20052;-80
2023/09/27 03:36:40;;;;;;;20.38;17.58;;;14.70;99.90;;;;;;5078159;28;20453;-80
2023/09/27 03:39:05;;;;;;;26.65;19.15;;;14.60;99.90;;;;;;5073020;28;20494;-80
2023/09/27 03:41:31;;;;;;;19.45;17.38;;;14.60;99.90;;;;;;5065021;28;20044;-79
2023/09/27 03:43:57;;;;;;;19.45;16.48;;;14.60;99.90;;;;;;5077436;28;20090;-79
2023/09/27 03:46:22;;;;;;;23.50;18.20;;;14.60;99.90;;;;;;5066544;28;20078;-79
2023/09/27 03:48:48;;;;;;;22.20;18.35;;;14.60;99.90;;;;;;5071881;28;20044;-79
2023/09/27 03:51:22;;;;;;;21.88;18.23;;;14.60;99.90;;;;;;5063688;28;20052;-79
2023/09/27 03:53:47;;;;;;;24.27;18.63;;;14.60;99.90;;;;;;5073357;28;20072;-81
2023/09/27 03:56:13;;;;;;;24.45;17.88;;;14.60;99.90;;;;;;5050564;28;20048;-79
2023/09/27 03:58:40;;;;;;;24.83;18.15;;;14.50;99.90;;;;;;5073190;28;20040;-79
2023/09/27 04:01:05;;;;;;;25.55;17.77;;;14.50;99.90;;;;;;5084671;28;20032;-78
2023/09/27 04:03:34;;;;;;;24.00;18.00;;;14.50;99.90;;;;;;5073678;28;20059;-80
2023/09/27 04:06:00;;;;;;;22.67;17.23;;;14.50;99.90;;;;;;5080705;28;20505;-79
2023/09/27 04:08:29;;;;;;;21.13;16.95;;;14.50;99.90;;;;;;5058499;28;20045;-82
2023/09/27 04:10:54;;;;;;;23.30;18.77;;;14.50;99.90;;;;;;5075145;28;20375;-79
2023/09/27 04:13:20;;;;;;;23.55;18.55;;;14.50;99.90;;;;;;5058912;28;20140;-78
2023/09/27 04:15:49;;;;;;;22.27;18.92;;;14.50;99.90;;;;;;5085665;28;20040;-79
2023/09/27 04:18:15;;;;;;;28.85;20.45;;;14.50;99.90;;;;;;5058326;28;20049;-80
2023/09/27 04:20:43;;;;;;;22.33;17.98;;;14.50;99.90;;;;;;5072516;28;20375;-80
2023/09/27 04:23:09;;;;;;;23.17;18.15;;;14.50;99.90;;;;;;5072449;28;20037;-81
2023/09/27 04:25:34;;;;;;;23.98;18.67;;;14.50;99.90;;;;;;5071384;28;20067;-80
2023/09/27 04:28:01;;;;;;;22.48;19.17;;;14.40;99.90;;;;;;5058012;28;20064;-79
2023/09/27 04:30:26;;;;;;;23.90;19.48;;;14.40;99.90;;;;;;5069784;28;20136;-79
2023/09/27 04:32:52;;;;;;;27.73;19.70;;;14.40;99.90;;;;;;5058563;28;20495;-78
2023/09/27 04:35:19;;;;;;;25.08;19.35;;;14.40;99.90;;;;;;5067699;28;20479;-80
2023/09/27 04:37:45;;;;;;;23.92;19.95;;;14.40;99.90;;;;;;5060689;28;20548;-78
2023/09/27 04:40:11;;;;;;;24.10;19.42;;;14.40;99.90;;;;;;5079600;28;20178;-79
2023/09/27 04:42:55;;;;;;;20.52;18.08;;;14.40;99.90;;;;;;5066528;28;20032;-79
2023/09/27 04:45:24;;;;;;;24.67;20.00;;;14.40;99.90;;;;;;5075453;28;20188;-80
2023/09/27 04:47:55;;;;;;;22.60;18.35;;;14.40;99.90;;;;;;5064920;28;20040;-80
2023/09/27 04:50:25;;;;;;;24.25;19.65;;;14.40;99.90;;;;;;5080240;28;20044;-80
2023/09/27 04:52:54;;;;;;;23.50;19.58;;;14.30;99.90;;;;;;5056416;28;20131;-80
2023/09/27 04:55:27;;;;;;;27.00;20.55;;;14.30;99.90;;;;;;5080148;28;20040;-81
2023/09/27 04:57:57;;;;;;;24.88;19.42;;;14.40;99.90;;;;;;5055051;28;20708;-80
2023/09/27 05:00:24;;;;;;;25.60;20.58;;;14.30;99.90;;;;;;5075228;28;20045;-79
2023/09/27 05:02:53;;;;;;;24.10;20.30;;;14.30;99.90;;;;;;5058724;28;20037;-79
2023/09/27 05:05:19;;;;;;;29.75;22.30;;;14.40;99.90;;;;;;5062672;28;20041;-77
2023/09/27 05:07:46;;;;;;;27.15;20.38;;;14.40;99.90;;;;;;5071930;28;20050;-80
2023/09/27 05:10:12;;;;;;;30.58;22.02;;;13.90;99.90;;;;;;5058278;28;20090;-79
2023/09/27 05:12:39;;;;;;;28.08;21.80;;;14.60;99.90;;;;;;5066940;28;20210;-81
2023/09/27 05:15:11;;;;;;;26.45;20.67;;;14.40;99.90;;;;;;5073592;28;20082;-80
2023/09/27 05:17:40;;;;;;;27.30;21.80;;;15.20;99.90;;;;;;5088028;28;20391;-79
2023/09/27 05:20:13;;;;;;;24.58;21.17;;;14.20;99.90;;;;;;5086653;28;20037;-80
2023/09/27 05:22:39;;;;;;;29.95;22.65;;;14.30;99.90;;;;;;5076990;28;20441;-80
2023/09/27 05:25:08;;;;;;;28.63;22.45;;;14.30;99.90;;;;;;5052067;28;20113;-78
2023/09/27 05:27:36;;;;;;;28.17;22.45;;;14.30;99.90;;;;;;5074018;28;20100;-79
2023/09/27 05:30:03;;;;;;;28.27;23.20;;;14.20;99.90;;;;;;5067783;28;20098;-78
2023/09/27 05:32:29;;;;;;;38.85;24.23;;;14.30;99.90;;;;;;5065841;28;20090;-80
2023/09/27 05:34:55;;;;;;;27.35;22.90;;;14.30;99.90;;;;;;5057358;28;20120;-80
2023/09/27 05:37:21;;;;;;;27.58;22.25;;;14.30;99.90;;;;;;5067278;28;20124;-79
2023/09/27 05:39:47;;;;;;;28.65;22.55;;;14.20;99.90;;;;;;5069945;28;20036;-78
2023/09/27 05:42:12;;;;;;;25.95;21.90;;;14.30;99.90;;;;;;5066314;28;20041;-78
2023/09/27 05:44:38;;;;;;;30.73;23.42;;;14.40;99.90;;;;;;5070705;28;20123;-78
2023/09/27 05:47:04;;;;;;;32.50;23.10;;;14.40;99.90;;;;;;5057915;28;20064;-80
2023/09/27 05:49:31;;;;;;;29.77;23.83;;;14.30;99.90;;;;;;5049214;28;20118;-79
2023/09/27 05:51:57;;;;;;;31.77;21.73;;;14.30;99.90;;;;;;5067262;28;20117;-80
2023/09/27 05:54:23;;;;;;;30.73;23.23;;;14.30;99.90;;;;;;5063309;28;20542;-79
2023/09/27 05:56:51;;;;;;;27.05;22.67;;;14.40;99.90;;;;;;5057024;28;20125;-79
2023/09/27 05:59:17;;;;;;;;;;;14.30;99.90;;;;;;5057630;28;20055;-79
2023/09/27 06:01:44;;;;;;;31.15;23.83;;;14.40;99.90;;;;;;5064626;28;19920;-78
2023/09/27 06:04:10;;;;;;;35.20;24.75;;;14.40;99.90;;;;;;5082799;28;20091;-80
2023/09/27 06:06:37;;;;;;;28.45;23.92;;;14.40;99.90;;;;;;5076618;28;20063;-78
2023/09/27 06:09:09;;;;;;;33.63;23.80;;;14.40;99.90;;;;;;5077354;28;20564;-79
2023/09/27 06:11:35;;;;;;;27.15;21.77;;;14.50;99.90;;;;;;5060394;28;20041;-78
2023/09/27 06:14:01;;;;;;;32.10;23.67;;;14.40;99.90;;;;;;5070012;28;20059;-79
2023/09/27 06:16:28;;;;;;;26.85;21.60;;;14.40;99.90;;;;;;5082635;28;20064;-79
2023/09/27 06:18:55;;;;;;;30.45;23.88;;;14.40;99.90;;;;;;5084655;28;20047;-78
2023/09/27 06:21:20;;;;;;;29.02;23.25;;;14.40;99.90;;;;;;5077836;28;20036;-78
2023/09/27 06:23:46;;;;;;;32.85;23.42;;;14.50;99.90;;;;;;5094193;28;20032;-79
2023/09/27 06:26:12;;;;;;;30.00;23.60;;;14.50;99.90;;;;;;5071168;28;20041;-78
2023/09/27 06:28:38;;;;;;;33.63;24.98;;;14.50;99.90;;;;;;5086941;28;20277;-78
2023/09/27 06:31:08;;;;;;;30.88;24.20;;;14.50;99.90;;;;;;5071841;28;20483;-78
2023/09/27 06:33:38;;;;;;;29.73;23.83;;;14.50;99.90;;;;;;5077361;28;20089;-79
2023/09/27 06:36:08;;;;;;;30.98;24.38;;;14.50;99.90;;;;;;5062678;28;20045;-78
2023/09/27 06:38:34;;;;;;;34.50;25.80;;;14.50;99.90;;;;;;5064371;28;20055;-79
2023/09/27 06:41:01;;;;;;;35.25;26.40;;;14.60;99.90;;;;;;5046674;28;20041;-80
2023/09/27 06:43:28;;;;;;;36.63;26.40;;;14.60;99.90;;;;;;5057025;28;20171;-80
2023/09/27 06:45:54;;;;;;;31.58;25.42;;;14.60;99.90;;;;;;5056171;28;20045;-79
2023/09/27 06:48:20;;;;;;;37.22;24.90;;;14.60;99.90;;;;;;5068730;28;20037;-80
2023/09/27 06:50:47;;;;;;;31.60;25.52;;;14.60;99.90;;;;;;5075465;28;20091;-79
2023/09/27 06:53:16;;;;;;;38.13;27.67;;;14.60;99.90;;;;;;5045096;28;20057;-80
2023/09/27 06:55:45;;;;;;;35.83;25.92;;;14.70;99.90;;;;;;5070434;28;20075;-79
2023/09/27 06:58:13;;;;;;;36.45;27.25;;;14.80;99.90;;;;;;5066712;28;20123;-80
2023/09/27 07:00:42;;;;;;;36.65;24.75;;;14.90;99.90;;;;;;5067866;28;20052;-80
2023/09/27 07:03:08;;;;;;;45.38;34.08;;;15.00;99.90;;;;;;5075211;28;20389;-78
2023/09/27 07:05:35;;;;;;;41.78;30.38;;;15.10;99.90;;;;;;5071103;28;20044;-79
2023/09/27 07:08:01;;;;;;;41.10;29.60;;;15.20;99.90;;;;;;5062577;28;20059;-80
2023/09/27 07:10:26;;;;;;;39.15;26.92;;;15.20;99.90;;;;;;5055862;28;20275;-81
2023/09/27 07:12:52;;;;;;;37.28;27.50;;;15.30;99.90;;;;;;5069534;28;20041;-80
2023/09/27 07:15:19;;;;;;;40.38;25.67;;;15.40;99.90;;;;;;5078592;28;20076;-79
2023/09/27 07:17:44;;;;;;;39.38;26.05;;;15.40;99.90;;;;;;5075387;28;20049;-80
2023/09/27 07:20:27;;;;;;;30.85;24.00;;;15.50;99.90;;;;;;5064937;28;20049;-80
2023/09/27 07:22:54;;;;;;;27.48;24.15;;;15.50;99.90;;;;;;5075071;28;20067;-79
2023/09/27 07:25:20;;;;;;;33.17;26.13;;;15.60;99.90;;;;;;5079825;28;20048;-80
2023/09/27 07:27:54;;;;;;;34.00;25.60;;;15.70;99.90;;;;;;5057692;28;20041;-80
2023/09/27 07:30:26;;;;;;;30.63;24.83;;;15.80;99.90;;;;;;5060109;28;20044;-80
2023/09/27 07:32:56;;;;;;;34.97;25.33;;;15.90;99.90;;;;;;5061188;28;20103;-80
2023/09/27 07:35:27;;;;;;;35.05;24.88;;;16.00;99.90;;;;;;5076103;28;20044;-81
2023/09/27 07:37:52;;;;;;;32.95;25.33;;;16.10;99.90;;;;;;5073038;28;20071;-81
2023/09/27 07:40:20;;;;;;;29.73;23.95;;;16.10;99.90;;;;;;5065308;28;20063;-82
2023/09/27 07:42:47;;;;;;;34.92;25.05;;;16.10;99.90;;;;;;5061744;28;20036;-81
2023/09/27 07:45:21;;;;;;;31.90;24.55;;;15.90;99.90;;;;;;5058592;28;20131;-81
2023/09/27 07:47:56;;;;;;;32.03;25.20;;;16.20;99.90;;;;;;5075127;28;20048;-80
2023/09/27 07:50:27;;;;;;;32.22;25.65;;;16.20;99.90;;;;;;5082406;28;20112;-81
2023/09/27 07:52:58;;;;;;;32.38;25.00;;;16.30;99.90;;;;;;5061725;28;20408;-81
2023/09/27 07:55:24;;;;;;;40.13;24.20;;;16.40;99.90;;;;;;5081328;28;20084;-81
2023/09/27 07:57:52;;;;;;;30.33;23.77;;;16.50;99.90;;;;;;5062850;28;20396;-80
2023/09/27 08:00:22;;;;;;;28.63;23.50;;;16.60;99.90;;;;;;5075608;28;20074;-82
2023/09/27 08:02:50;;;;;;;32.42;24.73;;;16.70;99.90;;;;;;5070307;28;20062;-81
2023/09/27 08:05:16;;;;;;;30.75;23.88;;;16.90;99.90;;;;;;5053877;28;20395;-81
2023/09/27 08:07:44;;;;;;;33.33;24.05;;;17.00;99.90;;;;;;5062926;28;20053;-82
2023/09/27 08:10:10;;;;;;;32.42;23.15;;;17.10;99.90;;;;;;5077490;28;20052;-82
2023/09/27 08:12:38;;;;;;;30.98;24.17;;;17.20;99.90;;;;;;5079644;28;20044;-80
2023/09/27 08:15:05;;;;;;;25.92;21.92;;;17.40;99.90;;;;;;5083112;28;20036;-81
2023/09/27 08:17:32;;;;;;;26.20;21.80;;;17.60;99.90;;;;;;5080379;28;20037;-80
2023/09/27 08:20:05;;;;;;;26.40;21.90;;;17.70;99.90;;;;;;5070369;28;20879;-81
2023/09/27 08:22:33;;;;;;;27.80;21.80;;;17.80;99.90;;;;;;5070634;28;20041;-81
2023/09/27 08:24:59;;;;;;;32.60;21.50;;;18.00;99.90;;;;;;5089741;28;20044;-81
2023/09/27 08:27:26;;;;;;;28.60;21.45;;;18.20;99.90;;;;;;5071616;28;20078;-80
2023/09/27 08:29:52;;;;;;;24.95;19.85;;;18.30;99.90;;;;;;5089938;28;20040;-81
2023/09/27 08:32:18;;;;;;;28.73;20.58;;;18.50;99.90;;;;;;5068107;28;20055;-80
2023/09/27 08:34:45;;;;;;;22.63;18.08;;;18.60;99.90;;;;;;5076550;28;20060;-81
2023/09/27 08:37:11;;;;;;;23.67;19.42;;;18.60;99.90;;;;;;5088281;28;20036;-81
2023/09/27 08:39:38;;;;;;;27.20;19.42;;;18.70;99.90;;;;;;5089090;28;20036;-81
2023/09/27 08:42:04;;;;;;;25.90;19.63;;;18.80;99.90;;;;;;5074579;28;20129;-80
2023/09/27 08:44:32;;;;;;;27.85;18.98;;;18.90;99.90;;;;;;5074296;28;20052;-81
2023/09/27 08:46:58;;;;;;;;;;;19.00;99.90;;;;;;5070512;28;21154;-82
2023/09/27 08:49:26;;;;;;;28.83;18.17;;;19.20;99.90;;;;;;5071791;28;19940;-81
2023/09/27 08:51:53;;;;;;;23.08;17.40;;;19.30;99.90;;;;;;5066861;28;20040;-83
2023/09/27 08:54:22;;;;;;;28.17;18.40;;;19.30;99.90;;;;;;5073241;28;20045;-80
2023/09/27 08:56:50;;;;;;;26.60;17.88;;;19.40;99.90;;;;;;5072840;28;20041;-81
2023/09/27 08:59:18;;;;;;;21.25;17.33;;;19.60;99.90;;;;;;5092330;28;20036;-82
2023/09/27 09:01:44;;;;;;;26.38;17.92;;;19.70;99.90;;;;;;5088634;28;20045;-79
2023/09/27 09:04:13;;;;;;;22.38;16.88;;;19.90;99.90;;;;;;5065024;28;20072;-81
2023/09/27 09:06:40;;;;;;;25.45;17.27;;;20.20;99.90;;;;;;5088284;28;20053;-80
2023/09/27 09:09:11;;;;;;;23.20;16.75;;;20.30;99.90;;;;;;5068165;28;20041;-79
2023/09/27 09:11:54;;;;;;;23.48;16.80;;;20.40;99.90;;;;;;5067675;28;20045;-79
2023/09/27 09:14:43;;;;;;;19.95;15.55;;;20.40;99.90;;;;;;5066253;28;20037;-80
2023/09/27 09:17:10;;;;;;;22.10;14.95;;;20.50;99.90;;;;;;5074608;28;20067;-81
2023/09/27 09:19:38;;;;;;;;;;;20.60;99.90;;;;;;5088000;28;20457;-80
2023/09/27 09:22:14;;;;;;;23.25;15.48;;;20.80;99.90;;;;;;5087829;28;19921;-81
2023/09/27 09:24:42;;;;;;;20.05;15.25;;;21.00;99.90;;;;;;5079747;28;20052;-81
2023/09/27 09:27:12;;;;;;;23.33;13.98;;;21.10;99.90;;;;;;5086176;28;20056;-81
2023/09/27 09:29:53;;;;;;;21.38;12.88;;;21.10;99.90;;;;;;5085524;28;20105;-80
2023/09/27 09:32:29;;;;;;;20.38;12.45;;;21.10;99.90;;;;;;5086246;28;20557;-81
2023/09/27 09:34:55;;;;;;;20.67;11.80;;;21.20;99.90;;;;;;5070276;28;20045;-80
2023/09/27 09:37:28;;;;;;;17.77;10.88;;;21.30;99.90;;;;;;5073141;28;20075;-81
2023/09/27 09:40:13;;;;;;;19.05;9.95;;;21.40;99.90;;;;;;5054532;28;20037;-80
2023/09/27 09:42:39;;;;;;;15.57;9.70;;;21.50;99.90;;;;;;5091681;28;20048;-82
2023/09/27 09:45:10;;;;;;;19.30;10.02;;;21.70;99.90;;;;;;5091076;28;20116;-81
2023/09/27 09:47:41;;;;;;;16.10;10.25;;;21.70;99.90;;;;;;5091298;28;20044;-81
2023/09/27 09:50:09;;;;;;;17.60;9.80;;;21.70;99.90;;;;;;5091655;28;20096;-82
2023/09/27 09:52:38;;;;;;;;;;;21.70;99.90;;;;;;5069002;28;20036;-81
2023/09/27 09:55:07;;;;;;;18.67;8.20;;;21.90;99.90;;;;;;5070558;28;19929;-83
2023/09/27 09:57:36;;;;;;;17.15;9.43;;;21.90;99.90;;;;;;5083413;28;20110;-82
2023/09/27 10:00:18;;;;;;;17.92;9.10;;;22.00;99.90;;;;;;5089134;28;20426;-82
2023/09/27 10:02:53;;;;;;;16.25;8.80;;;22.00;99.90;;;;;;5069193;28;20438;-84
2023/09/27 10:05:21;;;;;;;20.10;7.80;;;21.90;99.90;;;;;;5085105;28;20063;-82
2023/09/27 10:07:48;;;;;;;14.02;7.50;;;21.80;99.90;;;;;;5075752;28;20049;-83
2023/09/27 10:10:17;;;;;;;14.80;6.90;;;21.70;99.90;;;;;;5070985;28;20100;-83
2023/09/27 10:12:46;;;;;;;12.65;7.15;;;21.50;99.90;;;;;;5066969;28;20075;-80
2023/09/27 10:15:14;;;;;;;12.63;7.43;;;21.40;99.90;;;;;;5066524;28;20044;-81
2023/09/27 10:17:40;;;;;;;9.25;5.93;;;21.40;99.90;;;;;;5070571;28;20048;-80
2023/09/27 10:20:24;;;;;;;12.88;5.88;;;21.40;99.90;;;;;;5076609;28;20036;-80
2023/09/27 10:22:51;;;;;;;14.93;6.53;;;21.40;99.90;;;;;;5082087;28;20048;-80
2023/09/27 10:25:26;;;;;;;11.40;5.37;;;21.50;99.90;;;;;;5087626;28;20041;-80
2023/09/27 10:28:01;;;;;;;11.63;5.35;;;21.70;99.90;;;;;;5072294;28;20330;-81
2023/09/27 10:30:40;;;;;;;11.65;5.32;;;21.90;99.90;;;;;;5062255;28;20072;-83
2023/09/27 10:33:26;;;;;;;9.43;5.32;;;21.90;99.90;;;;;;5077891;28;20391;-81
2023/09/27 10:36:03;;;;;;;9.98;5.03;;;21.70;99.90;;;;;;5044686;28;20045;-82
2023/09/27 10:38:41;;;;;;;9.27;4.20;;;21.70;99.90;;;;;;5066336;28;20044;-83
2023/09/27 10:41:07;;;;;;;9.35;4.30;;;21.60;99.90;;;;;;5078974;28;20048;-83
2023/09/27 10:43:38;;;;;;;10.10;4.10;;;21.40;99.90;;;;;;5075793;28;20045;-82
2023/09/27 10:46:05;;;;;;;8.88;4.45;;;21.30;99.90;;;;;;5059712;28;20097;-80
2023/09/27 10:48:31;;;;;;;10.88;5.03;;;21.20;99.90;;;;;;5070249;28;20041;-82
2023/09/27 10:50:57;;;;;;;12.10;4.47;;;21.20;99.90;;;;;;5066673;28;20108;-81
2023/09/27 10:53:23;;;;;;;16.20;5.90;;;21.10;99.90;;;;;;5077424;28;20077;-81
2023/09/27 10:55:49;;;;;;;11.05;5.35;;;21.20;99.90;;;;;;5081025;28;20037;-81
2023/09/27 10:58:16;;;;;;;14.48;5.32;;;21.20;99.90;;;;;;5062172;28;20055;-82
2023/09/27 11:00:57;;;;;;;14.38;5.00;;;21.10;99.90;;;;;;5048753;28;20049;-82
2023/09/27 11:03:29;;;;;;;11.30;5.70;;;21.00;99.90;;;;;;5079412;28;20077;-82
2023/09/27 11:06:06;;;;;;;12.02;4.68;;;21.00;99.90;;;;;;5079337;28;20131;-81
2023/09/27 11:08:32;;;;;;;10.73;5.05;;;20.90;99.90;;;;;;5073457;28;20108;-83
2023/09/27 11:10:58;;;;;;;8.52;4.32;;;20.90;99.90;;;;;;5042631;28;20107;-82
2023/09/27 11:13:25;;;;;;;10.52;4.10;;;20.80;99.90;;;;;;5059679;28;20119;-80
2023/09/27 11:15:51;;;;;;;12.82;4.35;;;20.80;99.90;;;;;;5061696;28;20045;-82
2023/09/27 11:18:16;;;;;;;14.48;5.28;;;20.80;99.90;;;;;;5083673;28;20102;-82
2023/09/27 11:20:42;;;;;;;6.90;4.20;;;20.80;99.90;;;;;;5077406;28;20060;-80
2023/09/27 11:23:08;;;;;;;9.35;4.97;;;20.80;99.90;;;;;;5059391;28;20059;-81
2023/09/27 11:25:37;;;;;;;11.88;5.00;;;20.80;99.90;;;;;;5083035;28;20064;-80
2023/09/27 11:28:04;;;;;;;12.82;5.35;;;20.80;99.90;;;;;;5067015;28;20029;-81
2023/09/27 11:30:36;;;;;;;11.00;5.57;;;20.80;99.90;;;;;;5068942;28;20053;-83
2023/09/27 11:33:06;;;;;;;12.57;5.88;;;20.70;99.90;;;;;;5086279;28;20095;-81
2023/09/27 11:35:32;;;;;;;11.65;5.30;;;20.70;99.90;;;;;;5065713;28;20052;-80
2023/09/27 11:38:10;;;;;;;15.65;6.07;;;20.70;99.90;;;;;;5081399;28;20052;-84
2023/09/27 11:40:37;;;;;;;15.57;6.20;;;20.70;99.90;;;;;;5067258;28;20044;-82
2023/09/27 11:43:06;;;;;;;13.45;6.80;;;20.70;99.90;;;;;;5084038;28;20101;-83
2023/09/27 11:46:03;;;;;;;10.98;6.03;;;20.70;99.90;;;;;;5072525;28;20041;-82
2023/09/27 11:48:33;;;;;;;12.48;6.25;;;20.70;99.90;;;;;;5061567;28;20071;-82
2023/09/27 11:50:59;;;;;;;15.23;6.57;;;20.70;99.90;;;;;;5045585;28;20060;-84
2023/09/27 11:53:26;;;;;;;11.73;6.97;;;20.70;99.90;;;;;;5086467;28;20609;-81
2023/09/27 11:55:53;;;;;;;15.50;7.65;;;20.70;99.90;;;;;;5064726;28;20062;-80
2023/09/27 11:58:19;;;;;;;13.77;7.95;;;20.80;99.90;;;;;;5067684;28;20113;-82
2023/09/27 12:00:45;;;;;;;12.77;7.75;;;20.90;99.90;;;;;;5078511;28;20176;-80
2023/09/27 12:03:11;;;;;;;13.32;8.77;;;21.00;99.90;;;;;;5068623;28;20053;-80
2023/09/27 12:05:39;;;;;;;15.18;7.32;;;21.00;99.90;;;;;;5083512;28;20075;-84
2023/09/27 12:08:06;;;;;;;14.82;7.45;;;21.00;99.90;;;;;;5069786;28;20434;-80
2023/09/27 12:10:33;;;;;;;13.20;9.25;;;21.10;99.90;;;;;;5087539;28;20433;-81
2023/09/27 12:12:58;;;;;;;13.27;8.77;;;21.30;99.90;;;;;;5083385;28;20068;-82
2023/09/27 12:15:25;;;;;;;11.48;8.35;;;21.80;99.90;;;;;;5057639;28;20102;-83
2023/09/27 12:17:50;;;;;;;12.73;8.02;;;22.10;99.90;;;;;;5078070;28;20083;-81
2023/09/27 12:20:17;;;;;;;12.75;7.63;;;22.20;99.90;;;;;;5077167;28;20412;-81
2023/09/27 12:22:43;;;;;;;9.63;6.43;;;22.50;99.90;;;;;;5071139;28;20052;-81
2023/09/27 12:25:09;;;;;;;11.93;7.47;;;23.20;99.90;;;;;;5079668;28;20045;-82
2023/09/27 12:27:35;;;;;;;9.65;7.43;;;23.70;99.90;;;;;;5083303;28;20033;-81
2023/09/27 12:30:01;;;;;;;15.23;7.93;;;23.80;99.90;;;;;;5058777;28;20055;-82
2023/09/27 12:32:26;;;;;;;10.13;6.88;;;23.90;99.90;;;;;;5075093;28;20049;-82
2023/09/27 12:34:52;;;;;;;11.00;6.75;;;24.20;99.90;;;;;;5084466;28;20108;-83
2023/09/27 12:37:18;;;;;;;10.73;6.22;;;24.70;99.90;;;;;;5075993;28;20104;-85